sensor_id;sensor_type;location;lat;lon;timestamp;temperature;humidity
46159;DHT22;74657;45.650;25.590;2024-02-04T00:00:51;4.70;99.90
46159;DHT22;74657;45.650;25.590;2024-02-04T00:03:14;4.70;99.90
46159;DHT22;74657;45.650;25.590;2024-02-04T00:05:37;4.70;99.90
46159;DHT22;74657;45.650;25.590;2024-02-04T00:08:02;4.70;99.90
46159;DHT22;74657;45.650;25.590;2024-02-04T00:10:25;4.70;99.90
46159;DHT22;74657;45.650;25.590;2024-02-04T00:12:49;4.70;99.90
46159;DHT22;74657;45.650;25.590;2024-02-04T00:15:13;4.70;99.90
46159;DHT22;74657;45.650;25.590;2024-02-04T00:17:36;4.70;99.90
46159;DHT22;74657;45.650;25.590;2024-02-04T00:19:59;4.70;99.90
46159;DHT22;74657;45.650;25.590;2024-02-04T00:22:22;4.70;99.90
46159;DHT22;74657;45.650;25.590;2024-02-04T00:24:46;4.70;99.90
46159;DHT22;74657;45.650;25.590;2024-02-04T00:27:09;4.80;99.90
46159;DHT22;74657;45.650;25.590;2024-02-04T00:29:32;4.70;99.90
46159;DHT22;74657;45.650;25.590;2024-02-04T00:31:55;4.80;99.90
46159;DHT22;74657;45.650;25.590;2024-02-04T00:34:18;4.70;99.90
46159;DHT22;74657;45.650;25.590;2024-02-04T00:36:41;4.70;99.90
46159;DHT22;74657;45.650;25.590;2024-02-04T00:39:04;4.80;99.90
46159;DHT22;74657;45.650;25.590;2024-02-04T00:41:30;4.70;99.90
46159;DHT22;74657;45.650;25.590;2024-02-04T00:43:53;4.80;99.90
46159;DHT22;74657;45.650;25.590;2024-02-04T00:46:16;4.80;99.90
46159;DHT22;74657;45.650;25.590;2024-02-04T00:48:39;4.80;99.90
46159;DHT22;74657;45.650;25.590;2024-02-04T00:51:03;4.80;99.90
46159;DHT22;74657;45.650;25.590;2024-02-04T00:53:26;4.80;99.90
46159;DHT22;74657;45.650;25.590;2024-02-04T00:55:55;4.80;99.90
46159;DHT22;74657;45.650;25.590;2024-02-04T00:58:20;4.80;99.90
46159;DHT22;74657;45.650;25.590;2024-02-04T01:00:43;4.80;99.90
46159;DHT22;74657;45.650;25.590;2024-02-04T01:03:06;4.80;99.90
46159;DHT22;74657;45.650;25.590;2024-02-04T01:05:29;4.90;99.90
46159;DHT22;74657;45.650;25.590;2024-02-04T01:07:52;4.90;99.90
46159;DHT22;74657;45.650;25.590;2024-02-04T01:10:15;4.80;99.90
46159;DHT22;74657;45.650;25.590;2024-02-04T01:12:38;4.80;99.90
46159;DHT22;74657;45.650;25.590;2024-02-04T01:15:03;4.70;99.90
46159;DHT22;74657;45.650;25.590;2024-02-04T01:17:27;4.80;99.90
46159;DHT22;74657;45.650;25.590;2024-02-04T01:19:50;4.70;99.90
46159;DHT22;74657;45.650;25.590;2024-02-04T01:22:13;4.80;99.90
46159;DHT22;74657;45.650;25.590;2024-02-04T01:24:36;4.80;99.90
46159;DHT22;74657;45.650;25.590;2024-02-04T01:26:58;4.80;99.90
46159;DHT22;74657;45.650;25.590;2024-02-04T01:29:22;4.80;99.90
46159;DHT22;74657;45.650;25.590;2024-02-04T01:31:46;4.80;99.90
46159;DHT22;74657;45.650;25.590;2024-02-04T01:34:08;4.90;99.90
46159;DHT22;74657;45.650;25.590;2024-02-04T01:36:32;4.90;99.90
46159;DHT22;74657;45.650;25.590;2024-02-04T01:38:54;4.90;99.90
46159;DHT22;74657;45.650;25.590;2024-02-04T01:41:17;4.90;99.90
46159;DHT22;74657;45.650;25.590;2024-02-04T01:43:40;4.90;99.90
46159;DHT22;74657;45.650;25.590;2024-02-04T01:46:02;4.80;99.90
46159;DHT22;74657;45.650;25.590;2024-02-04T01:48:30;4.80;99.90
46159;DHT22;74657;45.650;25.590;2024-02-04T01:50:55;4.70;99.90
46159;DHT22;74657;45.650;25.590;2024-02-04T01:53:22;4.70;99.90
46159;DHT22;74657;45.650;25.590;2024-02-04T01:55:46;4.60;99.90
46159;DHT22;74657;45.650;25.590;2024-02-04T01:58:10;4.60;99.90
46159;DHT22;74657;45.650;25.590;2024-02-04T02:00:32;4.60;99.90
46159;DHT22;74657;45.650;25.590;2024-02-04T02:02:57;4.60;99.90
46159;DHT22;74657;45.650;25.590;2024-02-04T02:05:24;4.60;99.90
46159;DHT22;74657;45.650;25.590;2024-02-04T02:07:47;4.60;99.90
46159;DHT22;74657;45.650;25.590;2024-02-04T02:10:12;4.60;99.90
46159;DHT22;74657;45.650;25.590;2024-02-04T02:12:39;4.70;99.90
46159;DHT22;74657;45.650;25.590;2024-02-04T02:15:09;4.70;99.90
46159;DHT22;74657;45.650;25.590;2024-02-04T02:17:38;4.80;99.90
46159;DHT22;74657;45.650;25.590;2024-02-04T02:20:13;4.80;99.90
46159;DHT22;74657;45.650;25.590;2024-02-04T02:22:47;4.80;99.90
46159;DHT22;74657;45.650;25.590;2024-02-04T02:25:13;4.80;99.90
46159;DHT22;74657;45.650;25.590;2024-02-04T02:27:46;4.90;99.90
46159;DHT22;74657;45.650;25.590;2024-02-04T02:30:11;4.90;99.90
46159;DHT22;74657;45.650;25.590;2024-02-04T02:32:34;5.00;99.90
46159;DHT22;74657;45.650;25.590;2024-02-04T02:34:57;5.00;99.90
46159;DHT22;74657;45.650;25.590;2024-02-04T02:37:25;5.10;99.90
46159;DHT22;74657;45.650;25.590;2024-02-04T02:39:51;5.00;99.90
46159;DHT22;74657;45.650;25.590;2024-02-04T02:42:19;5.00;99.90
46159;DHT22;74657;45.650;25.590;2024-02-04T02:44:44;5.00;99.90
46159;DHT22;74657;45.650;25.590;2024-02-04T02:47:08;5.00;99.90
46159;DHT22;74657;45.650;25.590;2024-02-04T02:49:32;5.00;99.90
46159;DHT22;74657;45.650;25.590;2024-02-04T02:51:55;5.10;99.90
46159;DHT22;74657;45.650;25.590;2024-02-04T02:54:18;5.10;99.90
46159;DHT22;74657;45.650;25.590;2024-02-04T02:56:41;5.20;99.90
46159;DHT22;74657;45.650;25.590;2024-02-04T02:59:06;5.10;99.90
46159;DHT22;74657;45.650;25.590;2024-02-04T03:01:29;5.10;99.90
46159;DHT22;74657;45.650;25.590;2024-02-04T03:03:52;5.10;99.90
46159;DHT22;74657;45.650;25.590;2024-02-04T03:06:15;5.10;99.90
46159;DHT22;74657;45.650;25.590;2024-02-04T03:08:38;5.10;99.90
46159;DHT22;74657;45.650;25.590;2024-02-04T03:11:01;5.10;99.90
46159;DHT22;74657;45.650;25.590;2024-02-04T03:13:24;5.10;99.90
46159;DHT22;74657;45.650;25.590;2024-02-04T03:15:53;5.10;99.90
46159;DHT22;74657;45.650;25.590;2024-02-04T03:18:16;5.10;99.90
46159;DHT22;74657;45.650;25.590;2024-02-04T03:20:39;5.10;99.90
46159;DHT22;74657;45.650;25.590;2024-02-04T03:23:01;5.10;99.90
46159;DHT22;74657;45.650;25.590;2024-02-04T03:25:25;5.20;99.90
46159;DHT22;74657;45.650;25.590;2024-02-04T03:27:50;5.10;99.90
46159;DHT22;74657;45.650;25.590;2024-02-04T03:30:14;5.10;99.90
46159;DHT22;74657;45.650;25.590;2024-02-04T03:32:39;5.00;99.90
46159;DHT22;74657;45.650;25.590;2024-02-04T03:35:01;5.00;99.90
46159;DHT22;74657;45.650;25.590;2024-02-04T03:37:26;5.00;99.90
46159;DHT22;74657;45.650;25.590;2024-02-04T03:39:49;4.90;99.90
46159;DHT22;74657;45.650;25.590;2024-02-04T03:42:12;5.00;99.90
46159;DHT22;74657;45.650;25.590;2024-02-04T03:44:35;5.00;99.90
46159;DHT22;74657;45.650;25.590;2024-02-04T03:46:58;5.00;99.90
46159;DHT22;74657;45.650;25.590;2024-02-04T03:49:22;5.00;99.90
46159;DHT22;74657;45.650;25.590;2024-02-04T03:51:48;5.10;99.90
46159;DHT22;74657;45.650;25.590;2024-02-04T03:54:11;5.10;99.90
46159;DHT22;74657;45.650;25.590;2024-02-04T03:56:34;5.10;99.90
46159;DHT22;74657;45.650;25.590;2024-02-04T03:58:57;5.00;99.90
46159;DHT22;74657;45.650;25.590;2024-02-04T04:01:20;5.00;99.90
46159;DHT22;74657;45.650;25.590;2024-02-04T04:03:43;5.00;99.90
46159;DHT22;74657;45.650;25.590;2024-02-04T04:06:07;5.00;99.90
46159;DHT22;74657;45.650;25.590;2024-02-04T04:08:31;5.00;99.90
46159;DHT22;74657;45.650;25.590;2024-02-04T04:10:54;5.00;99.90
46159;DHT22;74657;45.650;25.590;2024-02-04T04:13:16;4.90;99.90
46159;DHT22;74657;45.650;25.590;2024-02-04T04:15:40;4.90;99.90
46159;DHT22;74657;45.650;25.590;2024-02-04T04:18:04;4.90;99.90
46159;DHT22;74657;45.650;25.590;2024-02-04T04:20:27;4.90;99.90
46159;DHT22;74657;45.650;25.590;2024-02-04T04:22:52;4.90;99.90
46159;DHT22;74657;45.650;25.590;2024-02-04T04:25:15;4.90;99.90
46159;DHT22;74657;45.650;25.590;2024-02-04T04:27:38;4.90;99.90
46159;DHT22;74657;45.650;25.590;2024-02-04T04:30:01;5.00;99.90
46159;DHT22;74657;45.650;25.590;2024-02-04T04:32:25;5.00;99.90
46159;DHT22;74657;45.650;25.590;2024-02-04T04:34:48;5.00;99.90
46159;DHT22;74657;45.650;25.590;2024-02-04T04:37:09;5.10;99.90
46159;DHT22;74657;45.650;25.590;2024-02-04T04:39:33;5.10;99.90
46159;DHT22;74657;45.650;25.590;2024-02-04T04:41:57;5.00;99.90
46159;DHT22;74657;45.650;25.590;2024-02-04T04:44:19;5.10;99.90
46159;DHT22;74657;45.650;25.590;2024-02-04T04:46:42;5.10;99.90
46159;DHT22;74657;45.650;25.590;2024-02-04T04:49:04;5.10;99.90
46159;DHT22;74657;45.650;25.590;2024-02-04T04:51:27;5.10;99.90
46159;DHT22;74657;45.650;25.590;2024-02-04T04:53:50;5.00;99.90
46159;DHT22;74657;45.650;25.590;2024-02-04T04:56:14;5.00;99.90
46159;DHT22;74657;45.650;25.590;2024-02-04T04:58:37;4.90;99.90
46159;DHT22;74657;45.650;25.590;2024-02-04T05:00:59;4.90;99.90
46159;DHT22;74657;45.650;25.590;2024-02-04T05:03:23;4.90;99.90
46159;DHT22;74657;45.650;25.590;2024-02-04T05:05:45;4.90;99.90
46159;DHT22;74657;45.650;25.590;2024-02-04T05:08:08;4.90;99.90
46159;DHT22;74657;45.650;25.590;2024-02-04T05:10:31;4.80;99.90
46159;DHT22;74657;45.650;25.590;2024-02-04T05:12:55;4.80;99.90
46159;DHT22;74657;45.650;25.590;2024-02-04T05:15:18;4.80;99.90
46159;DHT22;74657;45.650;25.590;2024-02-04T05:17:42;4.70;99.90
46159;DHT22;74657;45.650;25.590;2024-02-04T05:20:06;4.60;99.90
46159;DHT22;74657;45.650;25.590;2024-02-04T05:22:29;4.70;99.90
46159;DHT22;74657;45.650;25.590;2024-02-04T05:24:52;4.70;99.90
46159;DHT22;74657;45.650;25.590;2024-02-04T05:27:15;4.70;99.90
46159;DHT22;74657;45.650;25.590;2024-02-04T05:29:39;4.70;99.90
46159;DHT22;74657;45.650;25.590;2024-02-04T05:32:01;4.80;99.90
46159;DHT22;74657;45.650;25.590;2024-02-04T05:34:24;4.80;99.90
46159;DHT22;74657;45.650;25.590;2024-02-04T05:36:47;4.80;99.90
46159;DHT22;74657;45.650;25.590;2024-02-04T05:39:10;4.90;99.90
46159;DHT22;74657;45.650;25.590;2024-02-04T05:41:33;4.90;99.90
46159;DHT22;74657;45.650;25.590;2024-02-04T05:43:56;5.00;99.90
46159;DHT22;74657;45.650;25.590;2024-02-04T05:46:20;5.00;99.90
46159;DHT22;74657;45.650;25.590;2024-02-04T05:48:43;5.00;99.90
46159;DHT22;74657;45.650;25.590;2024-02-04T05:51:07;5.00;99.90
46159;DHT22;74657;45.650;25.590;2024-02-04T05:53:30;5.00;99.90
46159;DHT22;74657;45.650;25.590;2024-02-04T05:55:53;5.10;99.90
46159;DHT22;74657;45.650;25.590;2024-02-04T05:58:16;5.10;99.90
46159;DHT22;74657;45.650;25.590;2024-02-04T06:00:39;5.10;99.90
46159;DHT22;74657;45.650;25.590;2024-02-04T06:03:04;5.00;99.90
46159;DHT22;74657;45.650;25.590;2024-02-04T06:05:27;5.10;99.90
46159;DHT22;74657;45.650;25.590;2024-02-04T06:07:49;5.00;99.90
46159;DHT22;74657;45.650;25.590;2024-02-04T06:10:12;5.10;99.90
46159;DHT22;74657;45.650;25.590;2024-02-04T06:12:35;5.10;99.90
46159;DHT22;74657;45.650;25.590;2024-02-04T06:14:58;5.10;99.90
46159;DHT22;74657;45.650;25.590;2024-02-04T06:17:21;5.10;99.90
46159;DHT22;74657;45.650;25.590;2024-02-04T06:19:46;5.10;99.90
46159;DHT22;74657;45.650;25.590;2024-02-04T06:22:09;5.10;99.90
46159;DHT22;74657;45.650;25.590;2024-02-04T06:24:32;5.10;99.90
46159;DHT22;74657;45.650;25.590;2024-02-04T06:26:55;5.10;99.90
46159;DHT22;74657;45.650;25.590;2024-02-04T06:29:18;5.10;99.90
46159;DHT22;74657;45.650;25.590;2024-02-04T06:31:44;5.10;99.90
46159;DHT22;74657;45.650;25.590;2024-02-04T06:34:07;5.10;99.90
46159;DHT22;74657;45.650;25.590;2024-02-04T06:36:31;5.00;99.90
46159;DHT22;74657;45.650;25.590;2024-02-04T06:38:54;5.00;99.90
46159;DHT22;74657;45.650;25.590;2024-02-04T06:41:17;5.00;99.90
46159;DHT22;74657;45.650;25.590;2024-02-04T06:43:40;5.00;99.90
46159;DHT22;74657;45.650;25.590;2024-02-04T06:46:02;5.00;99.90
46159;DHT22;74657;45.650;25.590;2024-02-04T06:48:25;5.00;99.90
46159;DHT22;74657;45.650;25.590;2024-02-04T06:50:48;5.00;99.90
46159;DHT22;74657;45.650;25.590;2024-02-04T06:53:13;5.00;99.90
46159;DHT22;74657;45.650;25.590;2024-02-04T06:55:35;5.00;99.90
46159;DHT22;74657;45.650;25.590;2024-02-04T06:57:58;5.00;99.90
46159;DHT22;74657;45.650;25.590;2024-02-04T07:00:21;5.00;99.90
46159;DHT22;74657;45.650;25.590;2024-02-04T07:02:44;5.10;99.90
46159;DHT22;74657;45.650;25.590;2024-02-04T07:05:08;5.00;99.90
46159;DHT22;74657;45.650;25.590;2024-02-04T07:07:32;5.00;99.90
46159;DHT22;74657;45.650;25.590;2024-02-04T07:09:56;5.00;99.90
46159;DHT22;74657;45.650;25.590;2024-02-04T07:12:19;5.00;99.90
46159;DHT22;74657;45.650;25.590;2024-02-04T07:14:42;5.10;99.90
46159;DHT22;74657;45.650;25.590;2024-02-04T07:17:05;5.20;99.90
46159;DHT22;74657;45.650;25.590;2024-02-04T07:19:28;5.30;99.90
46159;DHT22;74657;45.650;25.590;2024-02-04T07:21:51;5.30;99.90
46159;DHT22;74657;45.650;25.590;2024-02-04T07:24:14;5.30;99.90
46159;DHT22;74657;45.650;25.590;2024-02-04T07:26:38;5.40;99.90
46159;DHT22;74657;45.650;25.590;2024-02-04T07:29:01;5.30;99.90
46159;DHT22;74657;45.650;25.590;2024-02-04T07:31:24;5.40;99.90
46159;DHT22;74657;45.650;25.590;2024-02-04T07:33:46;5.50;99.90
46159;DHT22;74657;45.650;25.590;2024-02-04T07:36:10;5.50;99.90
46159;DHT22;74657;45.650;25.590;2024-02-04T07:38:33;5.50;99.90
46159;DHT22;74657;45.650;25.590;2024-02-04T07:40:56;5.50;99.90
46159;DHT22;74657;45.650;25.590;2024-02-04T07:43:21;5.50;99.90
46159;DHT22;74657;45.650;25.590;2024-02-04T07:45:44;5.50;99.90
46159;DHT22;74657;45.650;25.590;2024-02-04T07:48:07;5.50;99.90
46159;DHT22;74657;45.650;25.590;2024-02-04T07:50:30;5.50;99.90
46159;DHT22;74657;45.650;25.590;2024-02-04T07:52:53;5.50;99.90
46159;DHT22;74657;45.650;25.590;2024-02-04T07:55:16;5.60;99.90
46159;DHT22;74657;45.650;25.590;2024-02-04T07:57:39;5.60;99.90
46159;DHT22;74657;45.650;25.590;2024-02-04T08:00:05;5.70;99.90
46159;DHT22;74657;45.650;25.590;2024-02-04T08:02:34;5.70;99.90
46159;DHT22;74657;45.650;25.590;2024-02-04T08:04:57;5.70;99.90
46159;DHT22;74657;45.650;25.590;2024-02-04T08:07:20;5.70;99.90
46159;DHT22;74657;45.650;25.590;2024-02-04T08:09:43;5.70;99.90
46159;DHT22;74657;45.650;25.590;2024-02-04T08:12:07;5.70;99.90
46159;DHT22;74657;45.650;25.590;2024-02-04T08:14:30;5.80;99.90
46159;DHT22;74657;45.650;25.590;2024-02-04T08:16:55;5.80;99.90
46159;DHT22;74657;45.650;25.590;2024-02-04T08:19:18;5.80;99.90
46159;DHT22;74657;45.650;25.590;2024-02-04T08:21:41;5.80;99.90
46159;DHT22;74657;45.650;25.590;2024-02-04T08:24:04;5.90;99.90
46159;DHT22;74657;45.650;25.590;2024-02-04T08:26:27;5.90;99.90
46159;DHT22;74657;45.650;25.590;2024-02-04T08:28:50;5.90;99.90
46159;DHT22;74657;45.650;25.590;2024-02-04T08:31:16;6.00;99.90
46159;DHT22;74657;45.650;25.590;2024-02-04T08:33:40;5.90;99.90
46159;DHT22;74657;45.650;25.590;2024-02-04T08:36:03;6.00;99.90
46159;DHT22;74657;45.650;25.590;2024-02-04T08:38:27;6.00;99.90
46159;DHT22;74657;45.650;25.590;2024-02-04T08:40:50;6.00;99.90
46159;DHT22;74657;45.650;25.590;2024-02-04T08:43:13;6.10;99.90
46159;DHT22;74657;45.650;25.590;2024-02-04T08:45:35;6.10;99.90
46159;DHT22;74657;45.650;25.590;2024-02-04T08:47:58;6.10;99.90
46159;DHT22;74657;45.650;25.590;2024-02-04T08:50:23;6.10;99.90
46159;DHT22;74657;45.650;25.590;2024-02-04T08:52:46;6.10;99.90
46159;DHT22;74657;45.650;25.590;2024-02-04T08:55:09;6.10;99.90
46159;DHT22;74657;45.650;25.590;2024-02-04T08:57:32;6.00;99.90
46159;DHT22;74657;45.650;25.590;2024-02-04T08:59:55;6.00;99.90
46159;DHT22;74657;45.650;25.590;2024-02-04T09:02:18;6.00;99.90
46159;DHT22;74657;45.650;25.590;2024-02-04T09:04:41;6.10;99.90
46159;DHT22;74657;45.650;25.590;2024-02-04T09:07:05;6.30;99.90
46159;DHT22;74657;45.650;25.590;2024-02-04T09:09:28;6.40;99.90
46159;DHT22;74657;45.650;25.590;2024-02-04T09:11:51;6.50;99.90
46159;DHT22;74657;45.650;25.590;2024-02-04T09:14:14;6.70;99.90
46159;DHT22;74657;45.650;25.590;2024-02-04T09:16:38;6.90;99.90
46159;DHT22;74657;45.650;25.590;2024-02-04T09:19:01;6.90;99.90
46159;DHT22;74657;45.650;25.590;2024-02-04T09:21:24;6.90;99.90
46159;DHT22;74657;45.650;25.590;2024-02-04T09:23:49;6.90;99.90
46159;DHT22;74657;45.650;25.590;2024-02-04T09:26:11;6.90;99.90
46159;DHT22;74657;45.650;25.590;2024-02-04T09:28:39;6.80;99.90
46159;DHT22;74657;45.650;25.590;2024-02-04T09:31:03;6.70;99.90
46159;DHT22;74657;45.650;25.590;2024-02-04T09:33:26;6.70;99.90
46159;DHT22;74657;45.650;25.590;2024-02-04T09:35:49;6.80;99.90
46159;DHT22;74657;45.650;25.590;2024-02-04T09:38:12;6.80;99.90
46159;DHT22;74657;45.650;25.590;2024-02-04T09:40:37;6.90;99.90
46159;DHT22;74657;45.650;25.590;2024-02-04T09:43:01;6.90;99.90
46159;DHT22;74657;45.650;25.590;2024-02-04T09:45:24;6.80;99.90
46159;DHT22;74657;45.650;25.590;2024-02-04T09:47:50;6.70;99.90
46159;DHT22;74657;45.650;25.590;2024-02-04T09:50:16;6.60;99.90
46159;DHT22;74657;45.650;25.590;2024-02-04T09:52:43;6.50;99.90
46159;DHT22;74657;45.650;25.590;2024-02-04T09:55:10;6.50;99.90
46159;DHT22;74657;45.650;25.590;2024-02-04T09:57:36;6.40;99.90
46159;DHT22;74657;45.650;25.590;2024-02-04T09:59:59;6.40;99.90
46159;DHT22;74657;45.650;25.590;2024-02-04T10:02:32;6.40;99.90
46159;DHT22;74657;45.650;25.590;2024-02-04T10:04:55;6.40;99.90
46159;DHT22;74657;45.650;25.590;2024-02-04T10:07:18;6.40;99.90
46159;DHT22;74657;45.650;25.590;2024-02-04T10:09:41;6.40;99.90
46159;DHT22;74657;45.650;25.590;2024-02-04T10:12:06;6.40;99.90
46159;DHT22;74657;45.650;25.590;2024-02-04T10:14:31;6.30;99.90
46159;DHT22;74657;45.650;25.590;2024-02-04T10:16:53;6.30;99.90
46159;DHT22;74657;45.650;25.590;2024-02-04T10:19:16;6.40;99.90
46159;DHT22;74657;45.650;25.590;2024-02-04T10:21:39;6.50;99.90
46159;DHT22;74657;45.650;25.590;2024-02-04T10:24:02;6.60;99.90
46159;DHT22;74657;45.650;25.590;2024-02-04T10:26:28;6.70;99.90
46159;DHT22;74657;45.650;25.590;2024-02-04T10:28:52;6.70;99.90
46159;DHT22;74657;45.650;25.590;2024-02-04T10:31:16;6.90;99.90
46159;DHT22;74657;45.650;25.590;2024-02-04T10:33:39;7.10;99.90
46159;DHT22;74657;45.650;25.590;2024-02-04T10:36:02;7.20;99.90
46159;DHT22;74657;45.650;25.590;2024-02-04T10:38:25;7.30;99.90
46159;DHT22;74657;45.650;25.590;2024-02-04T10:40:49;7.40;99.90
46159;DHT22;74657;45.650;25.590;2024-02-04T10:43:13;7.40;99.90
46159;DHT22;74657;45.650;25.590;2024-02-04T10:45:39;7.30;99.90
46159;DHT22;74657;45.650;25.590;2024-02-04T10:48:07;7.10;99.90
46159;DHT22;74657;45.650;25.590;2024-02-04T10:50:31;6.90;99.90
46159;DHT22;74657;45.650;25.590;2024-02-04T10:52:59;6.80;99.90
46159;DHT22;74657;45.650;25.590;2024-02-04T10:55:27;6.60;99.90
46159;DHT22;74657;45.650;25.590;2024-02-04T10:57:52;6.50;99.90
46159;DHT22;74657;45.650;25.590;2024-02-04T11:00:16;6.60;99.90
46159;DHT22;74657;45.650;25.590;2024-02-04T11:02:40;6.70;99.90
46159;DHT22;74657;45.650;25.590;2024-02-04T11:05:10;6.80;99.90
46159;DHT22;74657;45.650;25.590;2024-02-04T11:07:33;6.90;99.90
46159;DHT22;74657;45.650;25.590;2024-02-04T11:09:57;7.10;99.90
46159;DHT22;74657;45.650;25.590;2024-02-04T11:12:22;7.10;99.90
46159;DHT22;74657;45.650;25.590;2024-02-04T11:14:48;7.00;99.90
46159;DHT22;74657;45.650;25.590;2024-02-04T11:17:24;7.00;99.90
46159;DHT22;74657;45.650;25.590;2024-02-04T11:20:07;7.00;99.90
46159;DHT22;74657;45.650;25.590;2024-02-04T11:22:57;7.00;99.90
46159;DHT22;74657;45.650;25.590;2024-02-04T11:28:21;7.10;99.90
46159;DHT22;74657;45.650;25.590;2024-02-04T11:30:44;7.30;99.90
46159;DHT22;74657;45.650;25.590;2024-02-04T11:33:09;7.70;99.90
46159;DHT22;74657;45.650;25.590;2024-02-04T11:35:33;8.10;99.90
46159;DHT22;74657;45.650;25.590;2024-02-04T11:37:58;8.40;99.90
46159;DHT22;74657;45.650;25.590;2024-02-04T11:40:21;8.60;99.90
46159;DHT22;74657;45.650;25.590;2024-02-04T11:42:45;9.20;99.90
46159;DHT22;74657;45.650;25.590;2024-02-04T11:45:10;9.80;99.90
46159;DHT22;74657;45.650;25.590;2024-02-04T11:47:34;9.70;99.90
46159;DHT22;74657;45.650;25.590;2024-02-04T11:49:58;9.70;99.90
46159;DHT22;74657;45.650;25.590;2024-02-04T11:52:21;9.70;99.90
46159;DHT22;74657;45.650;25.590;2024-02-04T11:54:46;9.60;99.90
46159;DHT22;74657;45.650;25.590;2024-02-04T11:57:10;9.70;99.90
46159;DHT22;74657;45.650;25.590;2024-02-04T11:59:33;9.50;99.90
46159;DHT22;74657;45.650;25.590;2024-02-04T12:01:57;9.40;99.90
46159;DHT22;74657;45.650;25.590;2024-02-04T12:04:20;9.30;99.90
46159;DHT22;74657;45.650;25.590;2024-02-04T12:06:44;9.10;99.90
46159;DHT22;74657;45.650;25.590;2024-02-04T12:09:08;8.80;99.90
46159;DHT22;74657;45.650;25.590;2024-02-04T12:11:33;8.40;99.90
46159;DHT22;74657;45.650;25.590;2024-02-04T12:13:57;8.30;99.90
46159;DHT22;74657;45.650;25.590;2024-02-04T12:16:22;8.20;99.90
46159;DHT22;74657;45.650;25.590;2024-02-04T12:18:48;8.10;99.90
46159;DHT22;74657;45.650;25.590;2024-02-04T12:21:12;8.00;99.90
46159;DHT22;74657;45.650;25.590;2024-02-04T12:23:35;8.30;99.90
46159;DHT22;74657;45.650;25.590;2024-02-04T12:25:58;8.90;99.90
46159;DHT22;74657;45.650;25.590;2024-02-04T12:28:22;9.20;99.90
46159;DHT22;74657;45.650;25.590;2024-02-04T12:30:53;9.50;99.90
46159;DHT22;74657;45.650;25.590;2024-02-04T12:33:18;9.60;99.90
46159;DHT22;74657;45.650;25.590;2024-02-04T12:35:41;9.40;99.90
46159;DHT22;74657;45.650;25.590;2024-02-04T12:38:04;9.00;99.90
46159;DHT22;74657;45.650;25.590;2024-02-04T12:40:29;8.80;99.90
46159;DHT22;74657;45.650;25.590;2024-02-04T12:42:54;8.50;99.90
46159;DHT22;74657;45.650;25.590;2024-02-04T12:45:21;8.30;99.90
46159;DHT22;74657;45.650;25.590;2024-02-04T12:47:43;8.20;99.90
46159;DHT22;74657;45.650;25.590;2024-02-04T12:50:11;8.00;99.90
46159;DHT22;74657;45.650;25.590;2024-02-04T12:52:35;7.90;99.90
46159;DHT22;74657;45.650;25.590;2024-02-04T12:55:00;7.70;99.90
46159;DHT22;74657;45.650;25.590;2024-02-04T12:57:23;7.60;99.90
46159;DHT22;74657;45.650;25.590;2024-02-04T12:59:46;7.60;99.90
46159;DHT22;74657;45.650;25.590;2024-02-04T13:02:10;7.60;99.90
46159;DHT22;74657;45.650;25.590;2024-02-04T13:04:37;7.50;99.90
46159;DHT22;74657;45.650;25.590;2024-02-04T13:07:00;7.50;99.90
46159;DHT22;74657;45.650;25.590;2024-02-04T13:09:23;7.30;99.90
46159;DHT22;74657;45.650;25.590;2024-02-04T13:11:46;7.30;99.90
46159;DHT22;74657;45.650;25.590;2024-02-04T13:14:09;7.30;99.90
46159;DHT22;74657;45.650;25.590;2024-02-04T13:16:32;7.20;99.90
46159;DHT22;74657;45.650;25.590;2024-02-04T13:18:58;7.20;99.90
46159;DHT22;74657;45.650;25.590;2024-02-04T13:21:21;7.10;99.90
46159;DHT22;74657;45.650;25.590;2024-02-04T13:23:44;7.10;99.90
46159;DHT22;74657;45.650;25.590;2024-02-04T13:26:06;7.10;99.90
46159;DHT22;74657;45.650;25.590;2024-02-04T13:28:29;7.10;99.90
46159;DHT22;74657;45.650;25.590;2024-02-04T13:30:52;7.10;99.90
46159;DHT22;74657;45.650;25.590;2024-02-04T13:33:15;7.10;99.90
46159;DHT22;74657;45.650;25.590;2024-02-04T13:35:40;7.10;99.90
46159;DHT22;74657;45.650;25.590;2024-02-04T13:38:03;7.10;99.90
46159;DHT22;74657;45.650;25.590;2024-02-04T13:40:26;7.10;99.90
46159;DHT22;74657;45.650;25.590;2024-02-04T13:42:49;7.10;99.90
46159;DHT22;74657;45.650;25.590;2024-02-04T13:45:13;7.10;99.90
46159;DHT22;74657;45.650;25.590;2024-02-04T13:47:36;7.10;99.90
46159;DHT22;74657;45.650;25.590;2024-02-04T13:49:59;7.00;99.90
46159;DHT22;74657;45.650;25.590;2024-02-04T13:52:25;6.90;99.90
46159;DHT22;74657;45.650;25.590;2024-02-04T13:54:48;6.90;99.90
46159;DHT22;74657;45.650;25.590;2024-02-04T13:57:11;6.80;99.90
46159;DHT22;74657;45.650;25.590;2024-02-04T13:59:34;6.80;99.90
46159;DHT22;74657;45.650;25.590;2024-02-04T14:01:56;6.80;99.90
46159;DHT22;74657;45.650;25.590;2024-02-04T14:04:22;6.80;99.90
46159;DHT22;74657;45.650;25.590;2024-02-04T14:06:45;6.80;99.90
46159;DHT22;74657;45.650;25.590;2024-02-04T14:09:10;6.80;99.90
46159;DHT22;74657;45.650;25.590;2024-02-04T14:11:34;6.90;99.90
46159;DHT22;74657;45.650;25.590;2024-02-04T14:13:57;6.90;99.90
46159;DHT22;74657;45.650;25.590;2024-02-04T14:16:22;7.00;99.90
46159;DHT22;74657;45.650;25.590;2024-02-04T14:18:46;7.00;99.90
46159;DHT22;74657;45.650;25.590;2024-02-04T14:21:09;7.00;99.90
46159;DHT22;74657;45.650;25.590;2024-02-04T14:23:35;7.00;99.90
46159;DHT22;74657;45.650;25.590;2024-02-04T14:26:00;6.90;99.90
46159;DHT22;74657;45.650;25.590;2024-02-04T14:28:24;6.90;99.90
46159;DHT22;74657;45.650;25.590;2024-02-04T14:30:46;7.00;99.90
46159;DHT22;74657;45.650;25.590;2024-02-04T14:33:12;6.90;99.90
46159;DHT22;74657;45.650;25.590;2024-02-04T14:35:35;6.80;99.90
46159;DHT22;74657;45.650;25.590;2024-02-04T14:37:58;6.80;99.90
46159;DHT22;74657;45.650;25.590;2024-02-04T14:40:21;6.70;99.90
46159;DHT22;74657;45.650;25.590;2024-02-04T14:42:46;6.70;99.90
46159;DHT22;74657;45.650;25.590;2024-02-04T14:45:09;6.60;99.90
46159;DHT22;74657;45.650;25.590;2024-02-04T14:47:34;6.60;99.90
46159;DHT22;74657;45.650;25.590;2024-02-04T14:49:57;6.50;99.90
46159;DHT22;74657;45.650;25.590;2024-02-04T14:52:20;6.50;99.90
46159;DHT22;74657;45.650;25.590;2024-02-04T14:54:43;6.40;99.90
46159;DHT22;74657;45.650;25.590;2024-02-04T14:57:06;6.40;99.90
46159;DHT22;74657;45.650;25.590;2024-02-04T14:59:30;6.40;99.90
46159;DHT22;74657;45.650;25.590;2024-02-04T15:01:59;6.40;99.90
46159;DHT22;74657;45.650;25.590;2024-02-04T15:04:21;6.30;99.90
46159;DHT22;74657;45.650;25.590;2024-02-04T15:06:45;6.30;99.90
46159;DHT22;74657;45.650;25.590;2024-02-04T15:09:08;6.30;99.90
46159;DHT22;74657;45.650;25.590;2024-02-04T15:11:31;6.30;99.90